sensor_id;sensor_type;location;lat;lon;timestamp;pressure;altitude;pressure_sealevel;temperature;humidity
56825;BME280;42705;50.326;18.772;2023-03-14T00:03:51;96944.66;;;9.39;52.43
56825;BME280;42705;50.326;18.772;2023-03-14T00:09:13;96937.48;;;9.38;52.65
56825;BME280;42705;50.326;18.772;2023-03-14T00:14:35;96921.05;;;9.37;52.72
56825;BME280;42705;50.326;18.772;2023-03-14T00:19:57;96897.41;;;9.39;53.04
56825;BME280;42705;50.326;18.772;2023-03-14T00:25:25;96903.84;;;9.45;52.85
56825;BME280;42705;50.326;18.772;2023-03-14T00:30:47;96884.41;;;9.47;52.69
56825;BME280;42705;50.326;18.772;2023-03-14T00:36:12;96868.80;;;9.51;52.85
56825;BME280;42705;50.326;18.772;2023-03-14T00:41:34;96855.48;;;9.53;52.48
56825;BME280;42705;50.326;18.772;2023-03-14T00:46:55;96856.95;;;9.54;53.11
56825;BME280;42705;50.326;18.772;2023-03-14T00:52:18;96840.00;;;9.53;52.82
56825;BME280;42705;50.326;18.772;2023-03-14T00:57:40;96827.23;;;9.56;52.67
56825;BME280;42705;50.326;18.772;2023-03-14T01:03:02;96824.90;;;9.62;52.62
56825;BME280;42705;50.326;18.772;2023-03-14T01:08:24;96825.12;;;9.69;52.50
56825;BME280;42705;50.326;18.772;2023-03-14T01:13:47;96807.29;;;9.80;51.91
56825;BME280;42705;50.326;18.772;2023-03-14T01:19:09;96795.19;;;9.89;51.98
56825;BME280;42705;50.326;18.772;2023-03-14T01:24:31;96776.79;;;9.93;51.98
56825;BME280;42705;50.326;18.772;2023-03-14T01:29:53;96760.80;;;9.95;51.63
56825;BME280;42705;50.326;18.772;2023-03-14T01:35:15;96765.23;;;9.97;51.54
56825;BME280;42705;50.326;18.772;2023-03-14T01:40:42;96778.34;;;10.02;51.60
56825;BME280;42705;50.326;18.772;2023-03-14T02:02:46;96771.41;;;10.15;51.04
56825;BME280;42705;50.326;18.772;2023-03-14T02:08:14;96776.02;;;10.19;50.59
56825;BME280;42705;50.326;18.772;2023-03-14T02:13:44;96794.09;;;10.15;50.87
56825;BME280;42705;50.326;18.772;2023-03-14T02:19:35;96759.23;;;10.10;50.75
56825;BME280;42705;50.326;18.772;2023-03-14T02:30:53;96720.95;;;10.00;50.82
56825;BME280;42705;50.326;18.772;2023-03-14T02:36:18;96727.73;;;9.96;50.83
56825;BME280;42705;50.326;18.772;2023-03-14T02:41:43;96729.94;;;9.92;50.78
56825;BME280;42705;50.326;18.772;2023-03-14T02:47:08;96730.70;;;9.90;51.07
56825;BME280;42705;50.326;18.772;2023-03-14T02:52:30;96725.64;;;9.93;50.90
56825;BME280;42705;50.326;18.772;2023-03-14T02:57:52;96719.71;;;9.92;51.03
56825;BME280;42705;50.326;18.772;2023-03-14T03:03:15;96718.02;;;9.87;51.14
56825;BME280;42705;50.326;18.772;2023-03-14T03:08:36;96723.30;;;9.78;51.16
56825;BME280;42705;50.326;18.772;2023-03-14T03:13:59;96729.57;;;9.66;51.06
56825;BME280;42705;50.326;18.772;2023-03-14T03:19:50;96749.52;;;9.48;51.62
56825;BME280;42705;50.326;18.772;2023-03-14T03:25:12;96773.84;;;9.32;51.86
56825;BME280;42705;50.326;18.772;2023-03-14T03:30:39;96824.61;;;9.23;52.36
56825;BME280;42705;50.326;18.772;2023-03-14T03:36:01;96837.87;;;9.19;52.31
56825;BME280;42705;50.326;18.772;2023-03-14T03:41:26;96832.41;;;9.13;52.51
56825;BME280;42705;50.326;18.772;2023-03-14T03:46:48;96819.48;;;9.04;52.76
56825;BME280;42705;50.326;18.772;2023-03-14T03:52:10;96812.73;;;8.95;52.84
56825;BME280;42705;50.326;18.772;2023-03-14T03:57:32;96805.25;;;8.89;53.17
56825;BME280;42705;50.326;18.772;2023-03-14T04:02:54;96799.77;;;8.81;53.09
56825;BME280;42705;50.326;18.772;2023-03-14T04:08:17;96783.27;;;8.75;53.52
56825;BME280;42705;50.326;18.772;2023-03-14T04:13:39;96775.55;;;8.70;53.59
56825;BME280;42705;50.326;18.772;2023-03-14T04:19:02;96768.41;;;8.67;53.75
56825;BME280;42705;50.326;18.772;2023-03-14T04:24:25;96770.84;;;8.64;53.54
56825;BME280;42705;50.326;18.772;2023-03-14T04:29:48;96766.41;;;8.64;54.13
56825;BME280;42705;50.326;18.772;2023-03-14T04:35:13;96750.52;;;8.62;54.36
56825;BME280;42705;50.326;18.772;2023-03-14T04:40:43;96718.85;;;8.59;54.11
56825;BME280;42705;50.326;18.772;2023-03-14T04:46:06;96712.45;;;8.57;54.46
56825;BME280;42705;50.326;18.772;2023-03-14T04:51:28;96708.72;;;8.57;54.40
56825;BME280;42705;50.326;18.772;2023-03-14T04:56:50;96707.95;;;8.56;54.52
56825;BME280;42705;50.326;18.772;2023-03-14T05:02:12;96710.17;;;8.52;54.78
56825;BME280;42705;50.326;18.772;2023-03-14T05:08:01;96722.73;;;8.51;54.98
56825;BME280;42705;50.326;18.772;2023-03-14T05:13:39;96704.52;;;8.50;54.84
56825;BME280;42705;50.326;18.772;2023-03-14T05:19:21;96690.95;;;8.43;54.93
56825;BME280;42705;50.326;18.772;2023-03-14T05:25:06;96686.29;;;8.38;55.14
56825;BME280;42705;50.326;18.772;2023-03-14T05:30:41;96666.96;;;8.35;55.60
56825;BME280;42705;50.326;18.772;2023-03-14T05:36:03;96682.94;;;8.37;55.49
56825;BME280;42705;50.326;18.772;2023-03-14T05:41:37;96695.89;;;8.36;55.23
56825;BME280;42705;50.326;18.772;2023-03-14T05:47:19;96680.48;;;8.29;55.47
56825;BME280;42705;50.326;18.772;2023-03-14T05:53:04;96664.04;;;8.22;55.51
56825;BME280;42705;50.326;18.772;2023-03-14T05:58:38;96644.39;;;8.19;55.72
56825;BME280;42705;50.326;18.772;2023-03-14T06:04:11;96641.14;;;8.19;55.84
56825;BME280;42705;50.326;18.772;2023-03-14T06:09:34;96651.89;;;8.25;55.92
56825;BME280;42705;50.326;18.772;2023-03-14T06:14:57;96642.37;;;8.36;56.01
56825;BME280;42705;50.326;18.772;2023-03-14T06:20:19;96633.64;;;8.49;55.52
56825;BME280;42705;50.326;18.772;2023-03-14T06:25:41;96618.38;;;8.61;55.68
56825;BME280;42705;50.326;18.772;2023-03-14T06:31:03;96597.52;;;8.72;55.30
56825;BME280;42705;50.326;18.772;2023-03-14T06:36:30;96592.66;;;8.89;55.13
56825;BME280;42705;50.326;18.772;2023-03-14T06:41:52;96595.92;;;9.10;54.79
56825;BME280;42705;50.326;18.772;2023-03-14T06:47:14;96595.10;;;9.27;54.51
56825;BME280;42705;50.326;18.772;2023-03-14T06:52:38;96584.91;;;9.42;54.26
56825;BME280;42705;50.326;18.772;2023-03-14T06:58:03;96573.19;;;9.51;53.96
56825;BME280;42705;50.326;18.772;2023-03-14T07:03:33;96605.27;;;9.60;54.00
56825;BME280;42705;50.326;18.772;2023-03-14T07:08:56;96609.52;;;9.72;53.76
56825;BME280;42705;50.326;18.772;2023-03-14T07:14:19;96611.91;;;9.83;53.49
56825;BME280;42705;50.326;18.772;2023-03-14T07:19:41;96616.16;;;9.94;53.01
56825;BME280;42705;50.326;18.772;2023-03-14T07:25:04;96626.45;;;10.02;53.14
56825;BME280;42705;50.326;18.772;2023-03-14T07:30:26;96639.39;;;10.10;53.24
56825;BME280;42705;50.326;18.772;2023-03-14T07:35:49;96645.25;;;10.18;52.71
56825;BME280;42705;50.326;18.772;2023-03-14T07:41:12;96647.48;;;10.20;52.58
56825;BME280;42705;50.326;18.772;2023-03-14T07:46:41;96652.82;;;10.24;52.54
56825;BME280;42705;50.326;18.772;2023-03-14T07:52:03;96648.70;;;10.31;52.59
56825;BME280;42705;50.326;18.772;2023-03-14T07:57:25;96659.47;;;10.34;52.13
56825;BME280;42705;50.326;18.772;2023-03-14T08:02:46;96655.92;;;10.38;52.15
56825;BME280;42705;50.326;18.772;2023-03-14T08:08:09;96664.36;;;10.46;52.11
56825;BME280;42705;50.326;18.772;2023-03-14T08:13:31;96674.29;;;10.52;51.83
56825;BME280;42705;50.326;18.772;2023-03-14T08:18:53;96679.40;;;10.52;52.20
56825;BME280;42705;50.326;18.772;2023-03-14T08:24:16;96687.81;;;10.55;51.97
56825;BME280;42705;50.326;18.772;2023-03-14T08:29:38;96674.85;;;10.70;51.92
56825;BME280;42705;50.326;18.772;2023-03-14T08:34:59;96662.90;;;10.87;51.72
56825;BME280;42705;50.326;18.772;2023-03-14T08:40:21;96660.98;;;10.95;51.24
56825;BME280;42705;50.326;18.772;2023-03-14T08:45:43;96672.23;;;11.01;51.64
56825;BME280;42705;50.326;18.772;2023-03-14T08:51:10;96663.11;;;11.04;51.64
56825;BME280;42705;50.326;18.772;2023-03-14T08:56:34;96666.70;;;11.07;51.58
56825;BME280;42705;50.326;18.772;2023-03-14T09:01:55;96675.25;;;11.07;51.46
56825;BME280;42705;50.326;18.772;2023-03-14T09:07:18;96687.54;;;11.08;51.42
56825;BME280;42705;50.326;18.772;2023-03-14T09:12:40;96693.44;;;11.10;51.59
56825;BME280;42705;50.326;18.772;2023-03-14T09:18:02;96707.20;;;11.19;51.44
56825;BME280;42705;50.326;18.772;2023-03-14T09:23:24;96713.05;;;11.23;51.64
56825;BME280;42705;50.326;18.772;2023-03-14T09:28:46;96713.85;;;11.26;51.57
56825;BME280;42705;50.326;18.772;2023-03-14T09:34:07;96706.05;;;11.33;51.37
56825;BME280;42705;50.326;18.772;2023-03-14T09:39:29;96682.89;;;11.47;51.39
56825;BME280;42705;50.326;18.772;2023-03-14T09:44:56;96685.35;;;11.62;51.36
56825;BME280;42705;50.326;18.772;2023-03-14T09:50:19;96699.98;;;11.70;51.06
56825;BME280;42705;50.326;18.772;2023-03-14T09:55:42;96695.15;;;11.72;50.99
56825;BME280;42705;50.326;18.772;2023-03-14T10:01:05;96689.36;;;11.87;50.63
56825;BME280;42705;50.326;18.772;2023-03-14T10:06:30;96726.01;;;11.93;50.34
56825;BME280;42705;50.326;18.772;2023-03-14T10:11:57;96718.86;;;11.97;50.57
56825;BME280;42705;50.326;18.772;2023-03-14T10:17:21;96721.02;;;11.84;50.72
56825;BME280;42705;50.326;18.772;2023-03-14T10:22:43;96751.31;;;11.62;51.05
56825;BME280;42705;50.326;18.772;2023-03-14T10:28:22;96752.73;;;11.40;51.46
56825;BME280;42705;50.326;18.772;2023-03-14T10:34:01;96741.45;;;11.23;51.89
56825;BME280;42705;50.326;18.772;2023-03-14T10:45:25;96737.79;;;11.01;53.21
56825;BME280;42705;50.326;18.772;2023-03-14T10:51:06;96735.29;;;10.97;53.67
56825;BME280;42705;50.326;18.772;2023-03-14T10:56:36;96733.16;;;10.95;53.97
56825;BME280;42705;50.326;18.772;2023-03-14T11:02:22;96737.51;;;10.92;54.04
56825;BME280;42705;50.326;18.772;2023-03-14T11:07:53;96738.50;;;10.90;54.48
56825;BME280;42705;50.326;18.772;2023-03-14T11:24:42;96747.52;;;10.72;55.54
56825;BME280;42705;50.326;18.772;2023-03-14T11:30:19;96737.14;;;10.63;56.13
56825;BME280;42705;50.326;18.772;2023-03-14T11:41:23;96740.11;;;10.46;56.64
56825;BME280;42705;50.326;18.772;2023-03-14T11:47:02;96734.80;;;10.39;56.93
56825;BME280;42705;50.326;18.772;2023-03-14T11:52:35;96738.23;;;10.35;57.45
56825;BME280;42705;50.326;18.772;2023-03-14T11:58:20;96745.52;;;10.28;58.43
56825;BME280;42705;50.326;18.772;2023-03-14T12:03:49;96725.50;;;10.14;58.72
56825;BME280;42705;50.326;18.772;2023-03-14T12:09:20;96724.43;;;10.01;59.95
56825;BME280;42705;50.326;18.772;2023-03-14T12:14:52;96721.05;;;9.92;60.34
56825;BME280;42705;50.326;18.772;2023-03-14T12:25:37;96727.45;;;9.79;61.58
56825;BME280;42705;50.326;18.772;2023-03-14T12:48:02;96696.08;;;10.04;62.02
56825;BME280;42705;50.326;18.772;2023-03-14T12:53:41;96696.36;;;10.14;61.83
56825;BME280;42705;50.326;18.772;2023-03-14T12:59:29;96687.71;;;10.18;62.61
56825;BME280;42705;50.326;18.772;2023-03-14T13:05:13;96697.54;;;10.11;62.73
56825;BME280;42705;50.326;18.772;2023-03-14T13:10:42;96695.73;;;10.03;63.43
56825;BME280;42705;50.326;18.772;2023-03-14T13:16:14;96687.48;;;10.01;63.62
56825;BME280;42705;50.326;18.772;2023-03-14T13:21:37;96683.70;;;9.95;64.08
56825;BME280;42705;50.326;18.772;2023-03-14T13:26:59;96692.67;;;9.92;64.81
56825;BME280;42705;50.326;18.772;2023-03-14T13:32:26;96697.36;;;9.84;64.80
56825;BME280;42705;50.326;18.772;2023-03-14T13:38:00;96702.27;;;9.79;65.74
56825;BME280;42705;50.326;18.772;2023-03-14T13:43:29;96715.21;;;9.75;65.92
56825;BME280;42705;50.326;18.772;2023-03-14T13:48:58;96718.43;;;9.71;66.10
56825;BME280;42705;50.326;18.772;2023-03-14T13:54:21;96729.21;;;9.66;66.32
56825;BME280;42705;50.326;18.772;2023-03-14T13:59:58;96723.04;;;9.62;66.78
56825;BME280;42705;50.326;18.772;2023-03-14T14:05:22;96713.61;;;9.61;66.62
56825;BME280;42705;50.326;18.772;2023-03-14T14:10:46;96705.95;;;9.64;67.09
56825;BME280;42705;50.326;18.772;2023-03-14T14:16:10;96704.98;;;9.68;67.31
56825;BME280;42705;50.326;18.772;2023-03-14T14:21:32;96707.39;;;9.70;67.49
56825;BME280;42705;50.326;18.772;2023-03-14T14:26:59;96687.80;;;9.69;67.58
56825;BME280;42705;50.326;18.772;2023-03-14T14:32:22;96693.61;;;9.66;67.83
56825;BME280;42705;50.326;18.772;2023-03-14T14:37:45;96696.08;;;9.66;68.56
56825;BME280;42705;50.326;18.772;2023-03-14T14:43:11;96697.86;;;9.60;68.92
56825;BME280;42705;50.326;18.772;2023-03-14T14:48:37;96691.83;;;9.54;68.85
56825;BME280;42705;50.326;18.772;2023-03-14T14:54:20;96685.09;;;9.51;69.47
56825;BME280;42705;50.326;18.772;2023-03-14T14:59:56;96670.61;;;9.53;69.70
56825;BME280;42705;50.326;18.772;2023-03-14T15:05:20;96662.27;;;9.51;69.93
56825;BME280;42705;50.326;18.772;2023-03-14T15:10:42;96655.59;;;9.51;70.38
56825;BME280;42705;50.326;18.772;2023-03-14T15:16:10;96667.90;;;9.49;70.01
56825;BME280;42705;50.326;18.772;2023-03-14T15:21:32;96665.45;;;9.49;70.05
56825;BME280;42705;50.326;18.772;2023-03-14T15:26:54;96652.72;;;9.48;70.19
56825;BME280;42705;50.326;18.772;2023-03-14T15:32:17;96654.09;;;9.46;70.31
56825;BME280;42705;50.326;18.772;2023-03-14T15:37:40;96639.87;;;9.49;70.43
56825;BME280;42705;50.326;18.772;2023-03-14T15:43:02;96612.51;;;9.50;70.54
56825;BME280;42705;50.326;18.772;2023-03-14T15:48:24;96594.55;;;9.52;70.32
56825;BME280;42705;50.326;18.772;2023-03-14T15:53:46;96612.76;;;9.57;70.55
56825;BME280;42705;50.326;18.772;2023-03-14T15:59:09;96605.78;;;9.59;70.25
56825;BME280;42705;50.326;18.772;2023-03-14T16:04:31;96617.48;;;9.59;70.59
56825;BME280;42705;50.326;18.772;2023-03-14T16:09:53;96637.91;;;9.59;70.75
56825;BME280;42705;50.326;18.772;2023-03-14T16:15:15;96659.64;;;9.59;70.65
56825;BME280;42705;50.326;18.772;2023-03-14T16:20:37;96673.67;;;9.63;70.99
56825;BME280;42705;50.326;18.772;2023-03-14T16:26:03;96671.31;;;9.60;71.08
56825;BME280;42705;50.326;18.772;2023-03-14T16:31:25;96665.79;;;9.59;71.07
56825;BME280;42705;50.326;18.772;2023-03-14T16:36:47;96669.70;;;9.58;70.66
56825;BME280;42705;50.326;18.772;2023-03-14T16:42:12;96668.07;;;9.58;70.96
56825;BME280;42705;50.326;18.772;2023-03-14T16:47:34;96672.99;;;9.53;71.21
56825;BME280;42705;50.326;18.772;2023-03-14T16:52:56;96674.90;;;9.47;70.99
56825;BME280;42705;50.326;18.772;2023-03-14T16:58:18;96665.11;;;9.41;71.40
56825;BME280;42705;50.326;18.772;2023-03-14T17:03:46;96656.77;;;9.35;71.06
56825;BME280;42705;50.326;18.772;2023-03-14T17:09:08;96668.52;;;9.28;71.63
56825;BME280;42705;50.326;18.772;2023-03-14T17:14:30;96677.38;;;9.22;71.58
56825;BME280;42705;50.326;18.772;2023-03-14T17:19:52;96681.86;;;9.18;71.58
56825;BME280;42705;50.326;18.772;2023-03-14T17:25:14;96685.33;;;9.12;71.59
56825;BME280;42705;50.326;18.772;2023-03-14T17:30:36;96690.15;;;9.08;71.79
56825;BME280;42705;50.326;18.772;2023-03-14T17:35:58;96685.64;;;9.03;71.76
56825;BME280;42705;50.326;18.772;2023-03-14T17:41:20;96677.52;;;9.03;71.89
56825;BME280;42705;50.326;18.772;2023-03-14T17:46:42;96674.59;;;9.00;71.67
56825;BME280;42705;50.326;18.772;2023-03-14T17:52:04;96680.16;;;8.99;71.89
56825;BME280;42705;50.326;18.772;2023-03-14T17:57:27;96694.58;;;8.96;71.54
56825;BME280;42705;50.326;18.772;2023-03-14T18:02:50;96699.98;;;8.94;71.64
56825;BME280;42705;50.326;18.772;2023-03-14T18:08:13;96704.73;;;8.91;71.18
56825;BME280;42705;50.326;18.772;2023-03-14T18:13:36;96711.72;;;8.89;71.67
56825;BME280;42705;50.326;18.772;2023-03-14T18:18:59;96730.57;;;8.86;71.42
56825;BME280;42705;50.326;18.772;2023-03-14T18:24:22;96737.35;;;8.82;71.46
56825;BME280;42705;50.326;18.772;2023-03-14T18:29:45;96736.98;;;8.78;71.21
56825;BME280;42705;50.326;18.772;2023-03-14T18:35:07;96745.54;;;8.75;71.28
56825;BME280;42705;50.326;18.772;2023-03-14T18:40:29;96746.92;;;8.72;71.49
56825;BME280;42705;50.326;18.772;2023-03-14T18:45:52;96751.31;;;8.68;71.56
56825;BME280;42705;50.326;18.772;2023-03-14T18:51:14;96763.55;;;8.66;71.53
56825;BME280;42705;50.326;18.772;2023-03-14T18:56:38;96777.30;;;8.64;71.60
56825;BME280;42705;50.326;18.772;2023-03-14T19:02:00;96783.28;;;8.62;71.24
56825;BME280;42705;50.326;18.772;2023-03-14T19:07:23;96778.50;;;8.60;71.52
56825;BME280;42705;50.326;18.772;2023-03-14T19:12:45;96769.63;;;8.60;71.53
56825;BME280;42705;50.326;18.772;2023-03-14T19:18:09;96773.25;;;8.58;71.52
56825;BME280;42705;50.326;18.772;2023-03-14T19:23:32;96760.60;;;8.58;71.46
56825;BME280;42705;50.326;18.772;2023-03-14T19:28:55;96763.12;;;8.54;71.42
56825;BME280;42705;50.326;18.772;2023-03-14T19:34:17;96769.95;;;8.50;71.20
56825;BME280;42705;50.326;18.772;2023-03-14T19:39:39;96788.20;;;8.45;71.12
56825;BME280;42705;50.326;18.772;2023-03-14T19:45:02;96779.30;;;8.42;70.93
56825;BME280;42705;50.326;18.772;2023-03-14T19:50:26;96780.77;;;8.38;70.78
56825;BME280;42705;50.326;18.772;2023-03-14T19:55:48;96789.73;;;8.36;70.63
56825;BME280;42705;50.326;18.772;2023-03-14T20:01:11;96784.96;;;8.33;70.84
56825;BME280;42705;50.326;18.772;2023-03-14T20:06:33;96780.02;;;8.29;71.04
56825;BME280;42705;50.326;18.772;2023-03-14T20:11:55;96788.30;;;8.28;70.67
56825;BME280;42705;50.326;18.772;2023-03-14T20:17:17;96800.53;;;8.27;70.69
56825;BME280;42705;50.326;18.772;2023-03-14T20:22:40;96805.00;;;8.28;70.77
56825;BME280;42705;50.326;18.772;2023-03-14T20:28:03;96810.61;;;8.26;70.60
56825;BME280;42705;50.326;18.772;2023-03-14T20:33:25;96818.98;;;8.25;70.26
56825;BME280;42705;50.326;18.772;2023-03-14T20:38:47;96820.07;;;8.23;70.31
56825;BME280;42705;50.326;18.772;2023-03-14T20:44:10;96814.14;;;8.20;70.41
56825;BME280;42705;50.326;18.772;2023-03-14T20:49:33;96821.19;;;8.18;70.18
56825;BME280;42705;50.326;18.772;2023-03-14T20:54:56;96828.02;;;8.16;70.42
56825;BME280;42705;50.326;18.772;2023-03-14T21:00:19;96831.89;;;8.17;70.57
56825;BME280;42705;50.326;18.772;2023-03-14T21:05:46;96823.48;;;8.16;70.43
56825;BME280;42705;50.326;18.772;2023-03-14T21:11:08;96832.97;;;8.16;70.40
56825;BME280;42705;50.326;18.772;2023-03-14T21:16:30;96841.70;;;8.11;70.37
56825;BME280;42705;50.326;18.772;2023-03-14T21:21:57;96844.11;;;8.08;70.36
56825;BME280;42705;50.326;18.772;2023-03-14T21:27:20;96853.86;;;8.02;70.52
56825;BME280;42705;50.326;18.772;2023-03-14T21:32:42;96856.41;;;7.95;70.53
56825;BME280;42705;50.326;18.772;2023-03-14T21:38:05;96858.98;;;7.89;70.86
56825;BME280;42705;50.326;18.772;2023-03-14T21:43:27;96862.75;;;7.88;70.98
56825;BME280;42705;50.326;18.772;2023-03-14T21:48:49;96865.81;;;7.87;70.93
56825;BME280;42705;50.326;18.772;2023-03-14T21:54:12;96862.38;;;7.85;71.16
56825;BME280;42705;50.326;18.772;2023-03-14T21:59:36;96867.06;;;7.85;71.21
56825;BME280;42705;50.326;18.772;2023-03-14T22:04:58;96866.64;;;7.85;71.35
56825;BME280;42705;50.326;18.772;2023-03-14T22:10:20;96871.98;;;7.83;71.37
56825;BME280;42705;50.326;18.772;2023-03-14T22:15:43;96910.92;;;7.83;71.58
56825;BME280;42705;50.326;18.772;2023-03-14T22:21:06;96996.48;;;7.84;71.55
56825;BME280;42705;50.326;18.772;2023-03-14T22:26:27;97052.70;;;7.52;69.74
56825;BME280;42705;50.326;18.772;2023-03-14T22:31:49;97072.08;;;6.86;69.05
56825;BME280;42705;50.326;18.772;2023-03-14T22:37:12;97081.68;;;6.21;69.09
56825;BME280;42705;50.326;18.772;2023-03-14T22:42:36;97095.66;;;5.79;69.60
56825;BME280;42705;50.326;18.772;2023-03-14T22:47:58;97133.89;;;5.53;70.15
56825;BME280;42705;50.326;18.772;2023-03-14T22:53:20;97129.04;;;5.22;70.41
56825;BME280;42705;50.326;18.772;2023-03-14T22:58:42;97137.33;;;5.03;70.72
56825;BME280;42705;50.326;18.772;2023-03-14T23:04:04;97147.17;;;4.89;70.67
56825;BME280;42705;50.326;18.772;2023-03-14T23:09:26;97166.28;;;4.72;70.40
56825;BME280;42705;50.326;18.772;2023-03-14T23:14:47;97183.89;;;4.56;70.32
56825;BME280;42705;50.326;18.772;2023-03-14T23:20:10;97203.02;;;4.33;70.38
56825;BME280;42705;50.326;18.772;2023-03-14T23:25:33;97216.30;;;4.02;70.49
56825;BME280;42705;50.326;18.772;2023-03-14T23:30:56;97240.09;;;3.76;70.78
56825;BME280;42705;50.326;18.772;2023-03-14T23:36:18;97272.37;;;3.52;71.37
56825;BME280;42705;50.326;18.772;2023-03-14T23:41:42;97277.92;;;3.36;71.48
56825;BME280;42705;50.326;18.772;2023-03-14T23:47:05;97294.70;;;3.31;71.42
56825;BME280;42705;50.326;18.772;2023-03-14T23:52:27;97305.86;;;3.26;71.16
56825;BME280;42705;50.326;18.772;2023-03-14T23:57:49;97330.95;;;3.16;70.86
